메인 페이지
METAR-TAF:

METAR-TAF

공항 :

치와와 주, 멕시코

위도: 28-42N, 경도: 105-58W, 고도: 1360m

현재 날씨관측

예보는 1 시간 27분 전, 13:40시(UTC)에 발표되었습니다.
서남서5kt
온도 22°C
습도 11%
기압 1018 hPa
시정: 16.1km
고도 20000ft 상공 구름 조금

METAR: MMCU 251340Z 25005KT 10SM FEW200 22/M10 A3005 RMK 8/001

시각: 09:07 (15:07 UTC)

예보

예보는 9 시간 41분 전, 05:26시(UTC)에 발표되었습니다.
예보 대상 시간: 25일 06시부터 26일 06시까지 (UTC)
5kt
시정: 10km
맑음
25일 1100시부터 (UTC)
5kt
시정: 10km
맑음
일시적
25일 17시부터 25일 21시까지 (UTC)
서남서10kt, 순간 최대 풍속 20kt
26일 0000시부터 (UTC)
5kt
시정: 10km
맑음

TAF: MMCU 250526Z 2506/2606 10005KT P6SM SKC FM251100 28005KT P6SM SKC TEMPO 2517/2521 25010G20KT FM260000 27005KT P6SM SKC

4,000개 이상의 공항 관측 자료 및 예보 (METAR 및 TAF 보고).

지도상에서 검색 가능한 기상관측소가 노란 점과 빨간 점으로 표시되어 있습니다.

기상관측소 명을 보려면 표시 위로 마우스를 이동하세요.

날씨 관측과 예보를 보려면 클릭하세요.

지도 변경 : 확대하려면 엑스 표시가 있는 녹색 버튼, 축소하려면 빼기 표시가 있는 녹색 버튼, 다음 페이지의 지도를 보려면 녹색 화살표를 클릭하세요.


METAR-TAF: